Time;durP1;ratioP1;P1;durP2;ratioP2;P2;SDS_P1;SDS_P2;PMS_P1;PMS_P2;Temp;Humidity;BMP_temperature;BMP_pressure;BME280_temperature;BME280_humidity;BME280_pressure;Samples;Min_cycle;Max_cycle;Signal;HPM_P1;HPM_P2
2023/04/15 00:01:06;;;;;;;3.33;2.00;;;;;;;6.66;57.85;94028.22;5110864;28;20155;-73
2023/04/15 00:03:33;;;;;;;4.43;2.20;;;;;;;6.67;58.58;94035.00;5111935;28;20036;-73
2023/04/15 00:05:58;;;;;;;4.28;2.00;;;;;;;6.67;57.77;94035.81;5110620;28;20425;-73
2023/04/15 00:08:24;;;;;;;4.97;2.40;;;;;;;6.66;57.43;94041.94;5073144;28;20032;-74
2023/04/15 00:10:49;;;;;;;3.92;2.30;;;;;;;6.51;57.03;94019.91;5110231;28;20059;-73
2023/04/15 00:13:15;;;;;;;5.60;2.40;;;;;;;6.57;56.96;94031.50;5108800;28;20031;-73
2023/04/15 00:15:41;;;;;;;3.80;2.20;;;;;;;6.46;57.61;94027.19;5111898;28;20462;-73
2023/04/15 00:18:06;;;;;;;5.00;2.97;;;;;;;6.36;57.42;94034.03;5090367;28;20097;-73
2023/04/15 00:20:33;;;;;;;4.75;3.03;;;;;;;6.41;57.74;94044.81;5110219;28;20497;-73
2023/04/15 00:22:59;;;;;;;5.15;3.22;;;;;;;6.45;58.40;94057.34;5110261;28;20107;-73
2023/04/15 00:25:25;;;;;;;6.53;3.00;;;;;;;6.31;58.35;94054.22;5110558;28;20513;-73
2023/04/15 00:27:50;;;;;;;10.25;3.25;;;;;;;6.24;58.61;94053.84;5107676;28;20098;-73
2023/04/15 00:30:15;;;;;;;5.85;3.20;;;;;;;6.15;58.21;94033.94;5108426;28;20455;-74
2023/04/15 00:32:41;;;;;;;3.60;2.63;;;;;;;6.11;58.25;94041.09;5110334;28;20016;-73
2023/04/15 00:35:07;;;;;;;5.55;3.90;;;;;;;6.15;60.55;94054.56;5108985;28;20042;-73
2023/04/15 00:37:34;;;;;;;5.65;3.00;;;;;;;6.16;61.48;94058.81;5107107;28;20034;-74
2023/04/15 00:39:59;;;;;;;6.13;3.13;;;;;;;6.11;59.58;94064.31;5109621;28;20046;-73
2023/04/15 00:42:25;;;;;;;4.95;2.83;;;;;;;6.04;60.01;94057.97;5110266;28;20019;-73
2023/04/15 00:44:51;;;;;;;5.70;2.78;;;;;;;6.03;59.71;94061.50;5110366;28;20378;-74
2023/04/15 00:47:16;;;;;;;5.25;2.47;;;;;;;6.12;59.13;94068.53;5106160;28;20024;-74
2023/04/15 00:49:42;;;;;;;5.30;2.85;;;;;;;6.15;61.90;94085.53;5109844;28;20032;-73
2023/04/15 00:52:07;;;;;;;4.45;2.88;;;;;;;6.11;60.56;94078.97;5108792;28;20036;-74
2023/04/15 00:54:33;;;;;;;4.28;2.55;;;;;;;5.96;61.69;94065.47;5092006;28;20516;-73
2023/04/15 00:56:59;;;;;;;5.85;3.00;;;;;;;5.96;62.70;94062.91;5089677;28;21199;-74
2023/04/15 00:59:25;;;;;;;7.05;3.35;;;;;;;6.00;63.90;94067.72;5109597;28;20093;-74
2023/04/15 01:01:51;;;;;;;5.03;2.72;;;;;;;6.06;62.02;94075.91;5110187;28;20489;-73
2023/04/15 01:04:16;;;;;;;4.93;2.63;;;;;;;6.12;61.29;94068.53;5108307;28;20035;-73
2023/04/15 01:06:42;;;;;;;5.28;2.75;;;;;;;6.12;61.95;94088.34;5107582;28;20372;-73
2023/04/15 01:09:07;;;;;;;4.50;2.47;;;;;;;6.08;61.98;94069.72;5109233;28;20047;-74
2023/04/15 01:11:35;;;;;;;4.28;2.42;;;;;;;6.18;62.25;94074.97;5111066;28;20073;-74
2023/04/15 01:14:01;;;;;;;5.25;2.65;;;;;;;6.25;62.09;94078.72;5076656;28;20051;-74
2023/04/15 01:16:27;;;;;;;5.25;2.70;;;;;;;6.18;60.76;94085.28;5076334;28;20504;-74
2023/04/15 01:18:53;;;;;;;3.33;2.40;;;;;;;6.12;60.91;94063.38;5109366;28;20519;-73
2023/04/15 01:21:18;;;;;;;6.85;2.58;;;;;;;6.10;61.18;94065.25;5094892;28;20047;-74
2023/04/15 01:23:46;;;;;;;4.88;2.58;;;;;;;6.15;62.48;94070.03;5097318;28;20035;-74
2023/04/15 01:26:11;;;;;;;3.83;2.42;;;;;;;6.19;60.82;94061.16;5080524;28;20077;-74
2023/04/15 01:28:37;;;;;;;4.45;2.45;;;;;;;6.10;61.42;94049.78;5097145;28;20028;-74
2023/04/15 01:31:10;;;;;;;4.65;2.67;;;;;;;5.82;61.89;94038.97;5114228;28;20051;-73
2023/04/15 01:33:36;;;;;;;5.03;2.80;;;;;;;5.92;60.91;94074.38;5114104;28;20035;-73
2023/04/15 01:36:02;;;;;;;6.18;2.85;;;;;;;5.81;61.23;94067.44;5115169;27;20058;-74
2023/04/15 01:38:28;;;;;;;6.10;2.72;;;;;;;5.71;61.63;94054.44;5113079;28;20050;-73
2023/04/15 01:40:53;;;;;;;4.20;2.60;;;;;;;5.89;62.94;94072.03;5097251;28;20035;-74
2023/04/15 01:43:19;;;;;;;5.88;2.63;;;;;;;5.86;62.11;94070.50;5113750;28;20024;-74
2023/04/15 01:45:44;;;;;;;5.65;2.80;;;;;;;5.79;62.19;94065.00;5113917;28;20443;-73
2023/04/15 01:48:10;;;;;;;5.70;2.70;;;;;;;5.83;62.31;94074.13;5113602;28;20512;-74
2023/04/15 01:50:36;;;;;;;5.75;2.50;;;;;;;5.74;62.91;94056.78;5113767;28;20023;-74
2023/04/15 01:53:02;;;;;;;5.30;2.72;;;;;;;5.85;62.60;94066.28;5147814;27;20027;-73
2023/04/15 01:55:28;;;;;;;5.22;2.55;;;;;;;5.72;62.54;94061.22;5114790;28;20451;-74
2023/04/15 01:57:53;;;;;;;4.90;2.78;;;;;;;5.73;62.28;94064.63;5114776;28;20023;-73
2023/04/15 02:00:19;;;;;;;6.15;2.83;;;;;;;5.70;61.89;94062.28;5143613;27;20028;-74
2023/04/15 02:02:44;;;;;;;4.80;2.80;;;;;;;5.72;61.77;94061.22;5092410;28;20039;-73
2023/04/15 02:05:09;;;;;;;6.55;3.03;;;;;;;5.58;62.06;94061.44;5091232;28;20028;-73
2023/04/15 02:07:36;;;;;;;4.60;2.83;;;;;;;5.43;62.39;94060.00;5091742;28;20023;-73
2023/04/15 02:10:02;;;;;;;5.35;2.40;;;;;;;5.42;61.75;94076.41;5075804;28;20472;-74
2023/04/15 02:12:27;;;;;;;6.78;3.33;;;;;;;5.09;62.39;94055.59;5125799;27;20509;-73
2023/04/15 02:14:53;;;;;;;6.82;3.35;;;;;;;5.29;62.40;94082.47;5093503;28;20126;-73
2023/04/15 02:17:19;;;;;;;4.53;2.40;;;;;;;5.29;62.67;94079.06;5059193;28;20024;-73
2023/04/15 02:19:44;;;;;;;6.15;3.05;;;;;;;5.30;62.52;94088.44;5092660;28;20201;-73
2023/04/15 02:22:17;;;;;;;5.68;2.90;;;;;;;5.15;63.00;94069.78;5093229;28;20024;-73
2023/04/15 02:24:42;;;;;;;5.10;2.83;;;;;;;5.32;62.62;94082.25;5094371;28;20550;-73
2023/04/15 02:27:07;;;;;;;4.38;2.58;;;;;;;5.41;62.26;94074.78;5075792;28;20032;-73
2023/04/15 02:29:33;;;;;;;3.70;2.50;;;;;;;5.33;62.77;94078.72;5092380;28;20040;-74
2023/04/15 02:31:58;;;;;;;5.05;2.75;;;;;;;5.43;62.87;94075.47;5093136;28;20497;-73
2023/04/15 02:34:25;;;;;;;5.45;2.60;;;;;;;5.37;63.79;94069.00;5092525;28;20520;-74
2023/04/15 02:36:54;;;;;;;8.48;2.92;;;;;;;5.33;64.45;94059.88;5093667;28;20403;-74
2023/04/15 02:39:20;;;;;;;4.90;2.70;;;;;;;5.29;64.88;94066.19;5093861;28;20379;-74
2023/04/15 02:41:50;;;;;;;4.40;2.55;;;;;;;5.23;64.79;94061.50;5093645;28;20027;-73
2023/04/15 02:44:18;;;;;;;4.22;2.55;;;;;;;5.27;64.90;94053.44;5092264;28;20047;-73
2023/04/15 02:46:47;;;;;;;4.20;2.67;;;;;;;5.20;64.52;94054.81;5092189;28;20105;-74
2023/04/15 02:49:13;;;;;;;8.65;3.03;;;;;;;5.24;64.97;94056.25;5093677;28;20369;-73
2023/04/15 02:51:38;;;;;;;4.60;2.45;;;;;;;5.24;65.49;94063.16;5104102;28;20485;-73
2023/04/15 02:54:04;;;;;;;5.32;3.13;;;;;;;5.12;67.33;94065.66;5095457;28;20509;-74
2023/04/15 02:56:29;;;;;;;7.47;3.90;;;;;;;4.69;68.54;94060.25;5078584;28;20485;-73
2023/04/15 02:58:55;;;;;;;5.65;3.50;;;;;;;4.66;68.56;94068.19;5095551;28;20030;-73
2023/04/15 03:01:21;;;;;;;5.15;3.05;;;;;;;4.62;68.56;94057.28;5078605;28;20030;-73
2023/04/15 03:03:46;;;;;;;5.32;3.45;;;;;;;4.66;68.67;94069.00;5112449;28;20036;-74
2023/04/15 03:06:12;;;;;;;7.20;4.05;;;;;;;4.59;68.72;94067.78;5112206;28;20036;-73
2023/04/15 03:08:37;;;;;;;6.20;3.78;;;;;;;4.56;68.89;94077.47;5112451;28;20027;-73
2023/04/15 03:11:03;;;;;;;6.63;4.05;;;;;;;4.71;68.74;94084.13;5112367;28;20027;-74
2023/04/15 03:13:29;;;;;;;9.45;5.32;;;;;;;4.64;68.03;94081.16;5111958;28;20039;-73
2023/04/15 03:15:54;;;;;;;8.23;4.55;;;;;;;4.52;68.51;94089.75;5112099;28;20024;-73
2023/04/15 03:18:20;;;;;;;7.40;5.20;;;;;;;4.52;67.91;94104.38;5113522;28;20450;-73
2023/04/15 03:20:45;;;;;;;7.85;5.45;;;;;;;4.28;67.77;94104.31;5113311;28;20500;-73
2023/04/15 03:23:11;;;;;;;13.63;6.07;;;;;;;4.45;67.44;94102.19;5111952;28;20114;-73
2023/04/15 03:25:36;;;;;;;6.95;4.25;;;;;;;4.33;67.04;94090.22;5113175;28;20024;-74
2023/04/15 03:28:02;;;;;;;8.40;4.15;;;;;;;4.21;67.42;94106.50;5112042;28;20023;-73
2023/04/15 03:30:27;;;;;;;6.80;4.35;;;;;;;4.31;67.03;94122.91;5112982;28;20036;-73
2023/04/15 03:32:53;;;;;;;11.68;6.65;;;;;;;4.26;68.19;94132.69;5113165;28;20034;-73
2023/04/15 03:35:18;;;;;;;7.50;4.45;;;;;;;4.16;67.50;94111.13;5112772;28;20034;-73
2023/04/15 03:37:44;;;;;;;6.55;4.03;;;;;;;4.04;67.89;94123.09;5111720;28;20031;-73
2023/04/15 03:40:10;;;;;;;7.60;3.72;;;;;;;4.13;67.66;94124.19;5113321;28;20028;-73
2023/04/15 03:42:35;;;;;;;5.50;3.63;;;;;;;4.12;67.97;94127.69;5111568;28;20034;-73
2023/04/15 03:45:01;;;;;;;4.75;3.05;;;;;;;4.19;68.17;94126.34;5110581;28;20036;-73
2023/04/15 03:47:26;;;;;;;4.55;2.85;;;;;;;4.19;68.50;94129.72;5112695;28;20039;-73
2023/04/15 03:49:52;;;;;;;6.38;3.80;;;;;;;4.16;69.27;94136.84;5113022;28;20032;-73
2023/04/15 03:52:17;;;;;;;6.38;3.60;;;;;;;4.16;69.11;94116.28;5094229;28;20038;-73
2023/04/15 03:54:42;;;;;;;7.50;4.30;;;;;;;4.21;69.01;94130.47;5112917;28;20505;-73
2023/04/15 03:57:08;;;;;;;6.85;3.47;;;;;;;4.44;68.70;94141.72;5145681;27;20042;-73
2023/04/15 03:59:33;;;;;;;6.43;3.60;;;;;;;4.32;69.96;94142.59;5112822;28;20031;-74
2023/04/15 04:01:59;;;;;;;5.60;3.35;;;;;;;4.41;69.77;94129.06;5111090;28;20505;-73
2023/04/15 04:04:24;;;;;;;5.68;3.05;;;;;;;4.45;69.89;94127.91;5112518;27;20493;-73
2023/04/15 04:06:50;;;;;;;5.03;3.00;;;;;;;4.47;69.78;94131.22;5112195;28;20542;-74
2023/04/15 04:09:15;;;;;;;6.38;3.65;;;;;;;4.64;69.62;94139.50;5111045;28;20024;-74
2023/04/15 04:11:41;;;;;;;6.47;4.05;;;;;;;4.72;69.47;94142.38;5112004;28;20534;-74
2023/04/15 04:14:06;;;;;;;5.35;2.97;;;;;;;4.81;69.34;94143.47;5111781;28;20527;-73
2023/04/15 04:16:31;;;;;;;5.47;2.83;;;;;;;4.85;69.15;94145.72;5112475;28;20473;-73
2023/04/15 04:18:57;;;;;;;7.00;3.67;;;;;;;4.95;69.39;94147.63;5112225;28;20506;-74
2023/04/15 04:21:22;;;;;;;7.43;3.42;;;;;;;4.97;69.23;94156.06;5112047;28;20024;-73
2023/04/15 04:23:48;;;;;;;6.18;3.42;;;;;;;4.91;69.49;94155.56;5111909;28;20084;-72
2023/04/15 04:26:13;;;;;;;4.88;3.17;;;;;;;4.99;69.35;94149.88;5112053;27;20046;-73
2023/04/15 04:28:39;;;;;;;7.65;3.85;;;;;;;5.12;69.23;94149.81;5127775;27;20047;-74
2023/04/15 04:31:06;;;;;;;6.30;3.22;;;;;;;5.10;69.56;94139.66;5112070;28;20031;-73
2023/04/15 04:33:31;;;;;;;5.97;4.30;;;;;;;5.25;69.20;94148.00;5127573;27;20035;-73
2023/04/15 04:35:57;;;;;;;6.93;3.78;;;;;;;5.36;69.58;94147.22;5127571;27;20093;-73
2023/04/15 04:38:22;;;;;;;6.88;3.95;;;;;;;5.68;68.80;94142.28;5110532;28;20035;-73
2023/04/15 04:40:48;;;;;;;8.73;4.07;;;;;;;6.31;66.79;94105.81;5111728;28;20028;-73
2023/04/15 04:43:14;;;;;;;5.70;3.40;;;;;;;7.65;63.43;94145.91;5110580;28;20031;-73
2023/04/15 04:45:40;;;;;;;6.05;3.92;;;;;;;9.52;56.81;94139.47;5144587;27;20111;-73
2023/04/15 04:48:07;;;;;;;6.10;4.18;;;;;;;10.97;52.50;94143.44;5144685;27;20405;-74
2023/04/15 04:50:33;;;;;;;6.20;4.20;;;;;;;11.95;49.31;94141.81;5108944;28;20489;-74
2023/04/15 04:52:59;;;;;;;5.43;3.78;;;;;;;13.35;46.48;94149.31;5124096;27;20032;-74
2023/04/15 04:55:25;;;;;;;11.98;7.20;;;;;;;14.66;42.15;94145.88;5106319;28;20039;-74
2023/04/15 04:57:51;;;;;;;24.80;12.15;;;;;;;15.53;40.34;94151.84;5089698;28;20032;-71
2023/04/15 05:00:17;;;;;;;16.23;9.88;;;;;;;16.53;38.37;94149.09;5090983;28;20089;-72
2023/04/15 05:02:42;;;;;;;5.50;4.05;;;;;;;17.29;36.74;94154.16;5091044;28;20028;-74
2023/04/15 05:05:09;;;;;;;4.65;3.45;;;;;;;18.22;35.17;94156.91;5123914;27;20036;-72
2023/04/15 05:07:34;;;;;;;4.68;3.33;;;;;;;18.34;34.49;94157.25;5106745;28;20522;-72
2023/04/15 05:09:59;;;;;;;7.30;3.33;;;;;;;18.92;33.72;94153.41;5091376;28;20032;-74
2023/04/15 05:12:25;;;;;;;6.13;3.53;;;;;;;19.59;32.57;94169.50;5141015;27;20501;-74
2023/04/15 05:14:51;;;;;;;8.38;5.50;;;;;;;19.63;32.46;94174.16;5108841;28;20061;-72
2023/04/15 05:17:17;;;;;;;8.93;5.57;;;;;;;19.36;32.46;94167.16;5107909;28;20047;-73
2023/04/15 05:19:43;;;;;;;7.80;4.15;;;;;;;18.24;34.37;94184.66;5109894;28;20043;-74
2023/04/15 05:22:08;;;;;;;6.30;3.42;;;;;;;16.76;37.15;94184.91;5108839;28;20028;-74
2023/04/15 05:24:33;;;;;;;5.88;3.00;;;;;;;15.89;39.60;94180.13;5110269;28;20035;-73
2023/04/15 05:27:00;;;;;;;6.30;2.97;;;;;;;15.30;40.76;94177.16;5091707;28;20048;-73
2023/04/15 05:29:26;;;;;;;5.68;3.30;;;;;;;14.91;41.88;94194.47;5076182;28;20028;-73
2023/04/15 05:31:51;;;;;;;35.35;18.50;;;;;;;14.87;41.88;94200.22;5087496;28;20035;-73
2023/04/15 05:34:17;;;;;;;11.02;6.10;;;;;;;14.41;43.10;94192.13;5108511;28;20028;-73
2023/04/15 05:36:42;;;;;;;8.27;5.63;;;;;;;14.18;43.03;94199.78;5106255;28;20042;-73
2023/04/15 05:39:08;;;;;;;11.32;7.90;;;;;;;13.66;43.25;94194.88;5108149;28;20034;-73
2023/04/15 05:41:33;;;;;;;14.07;8.27;;;;;;;13.30;44.03;94197.72;5107293;28;20085;-73
2023/04/15 05:43:59;;;;;;;12.23;7.43;;;;;;;13.02;44.65;94190.09;5109041;28;20058;-73
2023/04/15 05:46:24;;;;;;;9.90;6.07;;;;;;;12.85;45.37;94172.75;5108847;28;20084;-73
2023/04/15 05:48:50;;;;;;;10.15;5.60;;;;;;;12.95;45.02;94197.75;5106014;28;20400;-72
2023/04/15 05:51:15;;;;;;;9.35;6.38;;;;;;;12.97;45.01;94194.97;5108711;28;20420;-73
2023/04/15 05:53:41;;;;;;;9.68;5.88;;;;;;;12.87;44.86;94176.84;5109505;28;20031;-76
2023/04/15 05:56:06;;;;;;;16.25;10.13;;;;;;;12.95;44.83;94194.28;5110908;28;20104;-72
2023/04/15 05:58:32;;;;;;;13.60;9.55;;;;;;;12.97;45.14;94198.38;5109672;28;20035;-73
2023/04/15 06:00:57;;;;;;;11.57;7.53;;;;;;;13.13;44.53;94207.25;5109515;28;20039;-72
2023/04/15 06:03:23;;;;;;;10.40;6.50;;;;;;;13.32;44.79;94208.81;5109629;28;20028;-73
2023/04/15 06:05:48;;;;;;;8.00;5.78;;;;;;;13.35;44.37;94185.03;5109770;28;20046;-74
2023/04/15 06:08:14;;;;;;;13.77;6.95;;;;;;;13.46;44.31;94202.19;5111779;28;20066;-75
2023/04/15 06:10:39;;;;;;;8.55;5.70;;;;;;;13.35;44.82;94201.50;5114774;28;20032;-79
2023/04/15 06:13:05;;;;;;;10.77;5.63;;;;;;;13.58;45.04;94211.34;5114915;28;20028;-72
2023/04/15 06:15:31;;;;;;;7.13;4.03;;;;;;;13.76;43.06;94211.19;5095382;28;20073;-73
2023/04/15 06:17:56;;;;;;;5.90;4.03;;;;;;;13.78;41.79;94209.25;5094994;28;20028;-75
2023/04/15 06:20:22;;;;;;;7.32;5.30;;;;;;;13.89;42.29;94205.50;5110027;28;20511;-74
2023/04/15 06:22:48;;;;;;;6.03;4.13;;;;;;;14.00;41.74;94202.56;5112147;28;20103;-74
2023/04/15 06:25:13;;;;;;;5.40;3.10;;;;;;;13.79;41.24;94201.25;5094396;28;20114;-74
2023/04/15 06:27:39;;;;;;;5.72;3.30;;;;;;;13.72;42.22;94209.88;5146052;27;20024;-75
2023/04/15 06:30:05;;;;;;;5.68;2.50;;;;;;;13.79;41.44;94198.66;5112359;28;20031;-75
2023/04/15 06:32:31;;;;;;;6.07;3.00;;;;;;;13.42;41.60;94212.09;5146204;27;20054;-74
2023/04/15 06:34:57;;;;;;;3.45;2.20;;;;;;;13.40;41.99;94219.28;5112578;28;20497;-74
2023/04/15 06:37:22;;;;;;;7.53;3.17;;;;;;;13.37;43.02;94212.59;5145441;27;20039;-74
2023/04/15 06:39:47;;;;;;;6.15;3.00;;;;;;;13.61;42.04;94229.28;5112310;28;20500;-74
2023/04/15 06:42:13;;;;;;;5.50;3.40;;;;;;;13.74;41.77;94221.81;5106558;28;20038;-74
2023/04/15 06:44:38;;;;;;;5.68;3.63;;;;;;;13.99;41.71;94240.13;5112493;28;20042;-73
2023/04/15 06:47:04;;;;;;;4.25;2.90;;;;;;;14.08;41.35;94228.69;5113271;28;20042;-74
2023/04/15 06:49:30;;;;;;;7.50;4.88;;;;;;;14.16;41.52;94238.34;5112215;28;20024;-74
2023/04/15 06:51:56;;;;;;;6.97;4.03;;;;;;;14.18;41.29;94208.47;5112086;28;20019;-72
2023/04/15 06:54:21;;;;;;;5.30;3.05;;;;;;;14.33;40.83;94223.47;5111370;28;20035;-74
2023/04/15 06:56:46;;;;;;;4.22;2.55;;;;;;;14.48;40.67;94247.94;5114128;28;20412;-74
2023/04/15 06:59:13;;;;;;;5.65;2.42;;;;;;;13.40;42.66;94256.63;5106979;28;20167;-74
2023/04/15 07:01:40;;;;;;;5.20;2.80;;;;;;;13.70;43.33;94257.03;5095462;28;20538;-73
2023/04/15 07:04:05;;;;;;;5.35;2.70;;;;;;;14.03;41.55;94242.22;5095596;28;20092;-73
2023/04/15 07:06:31;;;;;;;10.88;2.70;;;;;;;13.77;42.68;94247.59;5095736;28;20036;-72
2023/04/15 07:08:57;;;;;;;6.65;3.30;;;;;;;13.92;42.79;94247.75;5102261;28;20016;-74
2023/04/15 07:11:22;;;;;;;5.03;3.03;;;;;;;13.54;43.01;94257.81;5091359;28;20581;-74
2023/04/15 07:13:48;;;;;;;5.70;3.45;;;;;;;13.64;43.83;94252.44;5110828;27;20047;-75
2023/04/15 07:16:13;;;;;;;6.13;4.18;;;;;;;13.52;43.67;94225.84;5095441;28;20049;-75
2023/04/15 07:18:39;;;;;;;7.95;3.45;;;;;;;13.89;43.20;94249.88;5094345;27;20074;-75
2023/04/15 07:21:04;;;;;;;9.85;3.47;;;;;;;14.08;42.71;94255.63;5111084;27;20510;-75
2023/04/15 07:23:30;;;;;;;7.47;3.67;;;;;;;14.12;42.48;94240.44;5111395;27;20039;-75
2023/04/15 07:25:56;;;;;;;6.13;3.58;;;;;;;14.29;42.46;94247.31;5112246;27;20049;-76
2023/04/15 07:28:21;;;;;;;6.05;3.25;;;;;;;14.48;42.21;94237.50;5111268;28;20028;-76
2023/04/15 07:30:47;;;;;;;6.28;3.78;;;;;;;14.58;42.28;94250.44;5111500;28;20099;-76
2023/04/15 07:33:13;;;;;;;5.97;3.03;;;;;;;14.71;41.48;94248.94;5094357;28;20031;-76
2023/04/15 07:35:38;;;;;;;7.88;3.17;;;;;;;14.81;41.43;94250.56;5093245;28;20461;-76
2023/04/15 07:38:03;;;;;;;5.75;2.35;;;;;;;14.83;41.13;94253.84;5133307;27;20031;-76
2023/04/15 07:40:29;;;;;;;3.85;2.70;;;;;;;15.05;40.95;94250.50;5090873;28;20140;-78
2023/04/15 07:42:57;;;;;;;5.97;3.03;;;;;;;15.03;40.74;94241.19;5112171;27;20089;-76
2023/04/15 07:45:23;;;;;;;5.45;2.95;;;;;;;14.97;40.83;94258.38;5109018;27;20031;-76
2023/04/15 07:47:50;;;;;;;3.80;2.05;;;;;;;15.11;39.42;94255.06;5127593;27;20069;-76
2023/04/15 07:50:16;;;;;;;5.63;2.80;;;;;;;15.13;39.71;94249.69;5111315;28;20036;-76
2023/04/15 07:52:41;;;;;;;8.10;3.38;;;;;;;15.10;40.34;94261.28;5094117;28;20157;-75
2023/04/15 07:55:07;;;;;;;8.05;2.70;;;;;;;15.39;39.93;94260.69;5093926;27;20458;-77
2023/04/15 07:57:34;;;;;;;6.15;3.65;;;;;;;15.34;40.41;94233.41;5109680;28;20057;-76
2023/04/15 08:00:00;;;;;;;4.18;2.30;;;;;;;15.66;39.28;94248.16;5125414;27;20027;-76
2023/04/15 08:02:25;;;;;;;3.88;1.88;;;;;;;15.46;39.48;94266.06;5110657;28;20043;-75
2023/04/15 08:04:51;;;;;;;5.68;2.50;;;;;;;15.51;39.87;94253.28;5093792;28;20031;-76
2023/04/15 08:07:17;;;;;;;7.63;2.85;;;;;;;15.47;39.25;94257.22;5110716;28;20027;-78
2023/04/15 08:09:43;;;;;;;5.47;3.05;;;;;;;15.31;40.98;94262.53;5111567;28;20063;-78
2023/04/15 08:12:11;;;;;;;4.50;1.95;;;;;;;15.06;40.35;94265.22;5110841;28;20412;-77
2023/04/15 08:14:37;;;;;;;4.65;2.70;;;;;;;14.97;39.76;94251.34;5110833;28;20271;-73
2023/04/15 08:17:03;;;;;;;5.45;2.88;;;;;;;14.92;39.91;94260.66;5108450;28;20027;-74
2023/04/15 08:19:29;;;;;;;6.90;2.70;;;;;;;14.86;40.79;94249.06;5144500;27;20024;-75
2023/04/15 08:21:54;;;;;;;5.57;3.50;;;;;;;15.11;41.87;94268.16;5112475;28;20107;-76
2023/04/15 08:24:20;;;;;;;9.63;6.32;;;;;;;15.12;40.96;94250.66;5111607;27;20024;-75
2023/04/15 08:26:46;;;;;;;5.90;3.25;;;;;;;15.34;40.69;94256.94;5109834;28;20481;-71
2023/04/15 08:29:12;;;;;;;5.20;3.40;;;;;;;15.29;40.01;94248.78;5117629;27;20027;-70
2023/04/15 08:31:37;;;;;;;5.38;3.15;;;;;;;15.32;39.71;94246.66;5102309;27;20030;-71
2023/04/15 08:34:02;;;;;;;5.60;3.40;;;;;;;15.34;39.80;94249.09;5101669;28;20016;-71
2023/04/15 08:36:28;;;;;;;9.70;3.30;;;;;;;15.38;39.87;94247.78;5115853;27;20036;-72
2023/04/15 08:38:54;;;;;;;4.10;2.13;;;;;;;15.44;39.30;94246.28;5120340;27;20400;-72
2023/04/15 08:41:22;;;;;;;5.55;2.28;;;;;;;14.77;40.57;94255.31;5115998;27;20055;-74
2023/04/15 08:43:57;;;;;;;3.67;2.00;;;;;;;15.05;39.12;94253.13;5112166;27;20024;-71
2023/04/15 08:46:23;;;;;;;4.25;2.35;;;;;;;15.18;39.12;94253.41;5101400;27;20031;-72
2023/04/15 08:48:49;;;;;;;5.10;2.25;;;;;;;15.01;39.80;94251.81;5101335;27;20136;-72
2023/04/15 08:51:17;;;;;;;7.30;2.58;;;;;;;15.23;38.62;94233.78;5102145;28;20492;-72
2023/04/15 08:53:43;;;;;;;4.05;1.90;;;;;;;15.23;38.03;94233.78;5100340;28;20038;-72
2023/04/15 08:56:09;;;;;;;18.40;8.32;;;;;;;15.37;39.09;94236.47;5103003;27;20031;-72
2023/04/15 08:58:37;;;;;;;12.45;5.47;;;;;;;15.73;39.06;94233.41;5117633;27;20038;-72
2023/04/15 09:01:03;;;;;;;6.15;3.67;;;;;;;15.73;37.54;94209.84;5136206;27;20027;-74
2023/04/15 09:03:28;;;;;;;7.10;3.50;;;;;;;15.94;37.14;94221.50;5120114;28;20608;-74
2023/04/15 09:05:53;;;;;;;4.93;2.28;;;;;;;16.16;36.20;94222.47;5117963;27;20027;-71
2023/04/15 09:08:19;;;;;;;9.93;4.60;;;;;;;16.32;36.98;94227.59;5090627;28;20050;-73
2023/04/15 09:10:45;;;;;;;4.32;2.40;;;;;;;16.45;35.55;94221.75;5111683;28;20548;-73
2023/04/15 09:13:10;;;;;;;3.72;1.73;;;;;;;16.46;35.09;94190.09;5110045;28;20507;-73
2023/04/15 09:15:37;;;;;;;5.72;1.80;;;;;;;16.60;34.02;94208.66;5111221;28;20051;-74
2023/04/15 09:18:03;;;;;;;4.63;2.10;;;;;;;16.85;34.94;94210.09;5092488;28;20034;-73
2023/04/15 09:20:28;;;;;;;3.90;2.05;;;;;;;16.93;34.24;94206.56;5109380;28;20028;-73
2023/04/15 09:22:54;;;;;;;7.93;2.28;;;;;;;16.88;34.14;94207.13;5125869;27;20031;-73
2023/04/15 09:25:26;;;;;;;4.20;2.10;;;;;;;16.85;34.52;94204.84;5111217;28;20038;-72
2023/04/15 09:27:53;;;;;;;6.68;1.83;;;;;;;16.76;33.82;94205.91;5110320;28;20023;-73
2023/04/15 09:30:18;;;;;;;3.15;1.60;;;;;;;16.33;34.23;94216.13;5109804;28;20027;-73
2023/04/15 09:32:58;;;;;;;3.63;1.80;;;;;;;16.45;34.37;94217.31;5108954;28;20508;-73
2023/04/15 09:35:24;;;;;;;4.50;1.90;;;;;;;16.44;33.73;94218.31;5091538;28;20088;-74
2023/04/15 09:37:50;;;;;;;6.32;2.13;;;;;;;16.01;36.40;94218.00;5082348;28;20027;-72
2023/04/15 09:45:26;;;;;;;4.57;1.73;;;;;;;15.67;35.25;94214.91;5215105;22;20055;-72
2023/04/15 09:47:51;;;;;;;4.28;1.92;;;;;;;15.63;35.50;94220.50;5133996;27;20026;-71
2023/04/15 09:50:18;;;;;;;4.22;1.80;;;;;;;15.61;35.63;94201.53;5111848;28;20035;-71
2023/04/15 09:52:43;;;;;;;4.43;1.60;;;;;;;15.77;35.69;94205.91;5113037;28;20031;-71
2023/04/15 09:55:09;;;;;;;4.63;1.63;;;;;;;15.81;35.52;94211.59;5111505;28;20035;-72
2023/04/15 09:57:35;;;;;;;3.13;1.60;;;;;;;16.03;34.97;94208.16;5111705;28;20034;-72
2023/04/15 10:00:07;;;;;;;4.60;1.83;;;;;;;16.05;35.38;94202.75;5111614;28;20042;-72
2023/04/15 10:02:33;;;;;;;6.35;1.77;;;;;;;16.07;34.67;94187.66;5111801;28;20118;-71
2023/04/15 10:04:59;;;;;;;3.63;1.65;;;;;;;16.25;34.19;94197.84;5094835;28;20101;-73
2023/04/15 10:07:24;;;;;;;2.92;1.70;;;;;;;16.40;34.79;94190.81;5108885;28;20475;-72
2023/04/15 10:09:50;;;;;;;4.85;1.73;;;;;;;16.59;34.81;94191.31;5101608;27;20036;-71
2023/04/15 10:12:16;;;;;;;4.60;1.98;;;;;;;16.79;34.85;94189.81;5074685;28;20028;-72
2023/04/15 10:14:41;;;;;;;3.42;1.60;;;;;;;16.63;34.58;94196.03;5089290;28;20298;-71
2023/04/15 10:17:07;;;;;;;5.30;1.45;;;;;;;16.59;34.38;94192.13;5094404;28;20119;-71
2023/04/15 10:19:33;;;;;;;3.40;1.50;;;;;;;16.81;34.16;94200.97;5092817;28;20473;-71
2023/04/15 10:21:58;;;;;;;3.55;1.60;;;;;;;16.76;34.40;94203.28;5112411;28;20046;-71
2023/04/15 10:24:24;;;;;;;3.75;2.00;;;;;;;16.81;33.37;94187.84;5113280;28;20042;-71
2023/04/15 10:26:50;;;;;;;5.32;1.77;;;;;;;16.71;33.70;94187.25;5095808;28;20020;-71
2023/04/15 10:29:15;;;;;;;3.70;1.52;;;;;;;16.24;33.63;94165.59;5094324;28;20365;-71
2023/04/15 10:31:41;;;;;;;3.42;1.50;;;;;;;16.54;34.00;94176.13;5093738;28;20722;-71
2023/04/15 10:34:06;;;;;;;4.30;1.48;;;;;;;16.47;33.82;94176.03;5093866;28;20040;-71
2023/04/15 10:36:32;;;;;;;3.92;1.63;;;;;;;16.73;34.21;94180.03;5093817;28;20092;-71
2023/04/15 10:38:57;;;;;;;4.32;1.60;;;;;;;16.82;33.52;94171.09;5110654;28;20118;-71
2023/04/15 10:41:28;;;;;;;4.30;1.70;;;;;;;16.88;33.36;94169.56;5110722;28;20027;-71
2023/04/15 10:44:03;;;;;;;;;;;;;;;16.89;32.52;94173.84;5091162;28;20072;-71
2023/04/15 10:46:45;;;;;;;3.97;1.48;;;;;;;16.63;32.74;94163.75;5075407;28;19950;-71
2023/04/15 10:49:23;;;;;;;7.97;2.70;;;;;;;16.78;32.98;94169.84;5092353;28;20057;-71
2023/04/15 10:51:58;;;;;;;2.85;1.63;;;;;;;16.78;31.46;94172.47;5077156;28;20160;-71
2023/04/15 10:54:23;;;;;;;3.35;1.58;;;;;;;16.89;32.49;94169.41;5073341;28;20123;-72
2023/04/15 10:57:07;;;;;;;3.92;1.95;;;;;;;16.86;31.71;94158.47;5092243;28;20115;-73
2023/04/15 10:59:57;;;;;;;3.10;1.40;;;;;;;17.09;31.96;94160.97;5090849;28;20036;-72
2023/04/15 11:02:39;;;;;;;5.53;1.73;;;;;;;17.11;31.86;94169.50;5062037;28;20516;-72
2023/04/15 11:05:06;;;;;;;5.57;1.50;;;;;;;17.02;31.23;94171.41;5059578;28;20040;-73
2023/04/15 11:07:45;;;;;;;2.30;1.50;;;;;;;17.05;31.71;94168.41;5075093;28;20036;-73
2023/04/15 11:10:16;;;;;;;2.63;1.20;;;;;;;16.97;31.17;94164.06;5093475;28;20081;-73
2023/04/15 11:12:42;;;;;;;4.57;1.60;;;;;;;16.80;31.45;94159.16;5092995;28;20032;-73
2023/04/15 11:15:30;;;;;;;5.95;1.30;;;;;;;16.63;31.47;94161.13;5091885;28;20149;-73
2023/04/15 11:18:21;;;;;;;4.20;1.55;;;;;;;16.32;31.17;94169.94;5074621;28;20032;-73
2023/04/15 11:20:58;;;;;;;;;;;;;;;16.33;31.28;94166.34;5092257;28;20020;-73
2023/04/15 11:23:28;;;;;;;2.85;1.30;;;;;;;16.64;31.78;94163.56;5092630;28;19927;-73
2023/04/15 11:25:57;;;;;;;4.10;1.20;;;;;;;16.61;31.71;94168.38;5074548;28;20123;-73
2023/04/15 11:28:33;;;;;;;2.35;1.13;;;;;;;16.70;31.54;94154.16;5091317;28;20075;-73
2023/04/15 11:31:04;;;;;;;2.63;1.48;;;;;;;16.97;30.88;94169.31;5091628;28;20031;-71
2023/04/15 11:33:30;;;;;;;3.50;1.30;;;;;;;16.94;31.09;94153.94;5074635;28;20093;-71
2023/04/15 11:35:55;;;;;;;2.67;1.25;;;;;;;16.51;31.35;94153.69;5091135;28;20032;-71
2023/04/15 11:38:21;;;;;;;5.53;1.20;;;;;;;16.66;31.65;94155.50;5074291;28;20101;-71